Namaste — WDH4581 — position and weather

sailwx.info

Track history (hours):
 
Tides and Currents Weather Stations Pressure Air Temp Water Temp Dewpoint Dewpoint Depression Visibility Wind Speed Wind Dir Waves Ship Positions

Namaste

Owner: Orchanian, John P, Port Ludlow, WA. More information available from US FCC via Universal Licensing System and Coast Guard Vessel Documentation Center.

Last reported at 2017-Sep-24 02:51 UTC. Time now 2017-Oct-20 01:20 UTC.
Position N 47°43' W 122°33'.
Warning: this ship's position is 25 days out of date.

Type: Pleasure craft. MMSI: 367619230.

Date/timePositionNaut miles runAvg speedWind from/ knotsBaromVisibWave heightAir tempDewpointWater temp
2017-Sep-24 02:51N 47°43' W 122°33'1 4.3
2017-Sep-24 02:31N 47°43' W 122°31'2 4.1
2017-Sep-24 02:01N 47°43' W 122°28'2 4.6
2017-Sep-24 01:31N 47°42' W 122°25'1 0.7
2017-Sep-24 00:31N 47°42' W 122°26'1 2.4
2017-Sep-24 00:01N 47°41' W 122°27'1 1.3
2017-Sep-23 23:30N 47°40' W 122°27'1 1.5
2017-Sep-23 23:00N 47°41' W 122°27'1 2.3
2017-Sep-23 22:31N 47°41' W 122°25'1 1.3
2017-Sep-23 22:01N 47°41' W 122°25'1 2.3
2017-Sep-23 21:30N 47°43' W 122°25'1 2.2
2017-Sep-23 21:00N 47°43' W 122°26'1 2.5
2017-Sep-23 20:31N 47°44' W 122°28'2 3.8
2017-Sep-23 20:00N 47°44' W 122°31'  
Track history (hours):
 
Tides and Currents Weather Stations Pressure Air Temp Water Temp Dewpoint Dewpoint Depression Visibility Wind Speed Wind Dir Waves Ship Positions

Namaste

Owner: Orchanian, John P, Port Ludlow, WA. More information available from US FCC via Universal Licensing System and Coast Guard Vessel Documentation Center.

Last reported at 2017-Sep-24 02:51 UTC. Time now 2017-Oct-20 01:20 UTC.
Position N 47°43' W 122°33'.
Warning: this ship's position is 25 days out of date.

Type: Pleasure craft. MMSI: 367619230.

Date/timePositionNaut miles runAvg speedWind from/ knotsBaromVisibWave heightAir tempDewpointWater temp
2017-Sep-24 02:51N 47°43' W 122°33'1 4.3
2017-Sep-24 02:31N 47°43' W 122°31'2 4.1
2017-Sep-24 02:01N 47°43' W 122°28'2 4.6
2017-Sep-24 01:31N 47°42' W 122°25'1 0.7
2017-Sep-24 00:31N 47°42' W 122°26'1 2.4
2017-Sep-24 00:01N 47°41' W 122°27'1 1.3
2017-Sep-23 23:30N 47°40' W 122°27'1 1.5
2017-Sep-23 23:00N 47°41' W 122°27'1 2.3
2017-Sep-23 22:31N 47°41' W 122°25'1 1.3
2017-Sep-23 22:01N 47°41' W 122°25'1 2.3
2017-Sep-23 21:30N 47°43' W 122°25'1 2.2
2017-Sep-23 21:00N 47°43' W 122°26'1 2.5
2017-Sep-23 20:31N 47°44' W 122°28'2 3.8
2017-Sep-23 20:00N 47°44' W 122°31'  

Dump ship's entire track history